createdAt,value
2022-12-06T00:00:05.193Z,6.35
2022-12-06T00:02:34.536Z,6.36
2022-12-06T00:05:02.412Z,6.35
2022-12-06T00:07:31.049Z,6.35
2022-12-06T00:09:59.172Z,6.38
2022-12-06T00:12:28.058Z,6.33
2022-12-06T00:14:55.818Z,6.38
2022-12-06T00:17:24.468Z,6.37
2022-12-06T00:19:53.663Z,6.37
2022-12-06T00:22:21.471Z,6.35
2022-12-06T00:24:49.200Z,6.33
2022-12-06T00:27:16.895Z,6.35
2022-12-06T00:29:44.705Z,6.36
2022-12-06T00:32:19.100Z,6.40
2022-12-06T00:34:47.346Z,6.40
2022-12-06T00:37:16.603Z,6.42
2022-12-06T00:39:44.358Z,6.41
2022-12-06T00:42:12.113Z,6.40
2022-12-06T00:44:39.856Z,6.35
2022-12-06T00:47:07.633Z,6.37
2022-12-06T00:49:35.493Z,6.36
2022-12-06T00:52:03.203Z,6.38
2022-12-06T00:54:32.372Z,6.41
2022-12-06T00:57:00.192Z,6.39
2022-12-06T00:59:28.467Z,6.43
2022-12-06T01:01:56.197Z,6.40
2022-12-06T01:04:23.972Z,6.43
2022-12-06T01:06:51.690Z,6.43
2022-12-06T01:09:19.378Z,6.43
2022-12-06T01:11:48.472Z,6.43
2022-12-06T01:14:16.200Z,6.44
2022-12-06T01:16:43.886Z,6.43
2022-12-06T01:19:13.469Z,6.41
2022-12-06T01:21:41.082Z,6.44
2022-12-06T01:24:09.035Z,6.43
2022-12-06T01:26:37.304Z,6.41
2022-12-06T01:29:06.353Z,6.44
2022-12-06T01:31:38.599Z,6.50
2022-12-06T01:34:07.994Z,6.52
2022-12-06T01:36:35.664Z,6.54
2022-12-06T01:39:08.888Z,6.54
2022-12-06T01:41:36.470Z,6.53
2022-12-06T01:44:06.721Z,6.55
2022-12-06T01:46:36.130Z,6.56
2022-12-06T01:49:17.330Z,6.57
2022-12-06T01:51:48.500Z,6.60
2022-12-06T01:54:17.470Z,6.60
2022-12-06T01:56:45.271Z,6.59
2022-12-06T01:59:14.888Z,6.60
2022-12-06T02:01:42.897Z,6.56
2022-12-06T02:04:11.036Z,6.55
2022-12-06T02:06:40.603Z,6.54
2022-12-06T02:09:09.676Z,6.51
2022-12-06T02:11:37.733Z,6.54
2022-12-06T02:14:07.376Z,6.55
2022-12-06T02:16:51.183Z,6.54
2022-12-06T02:19:36.776Z,6.53
2022-12-06T02:22:09.973Z,6.57
2022-12-06T02:24:48.858Z,6.55
2022-12-06T02:27:38.283Z,6.60
2022-12-06T02:30:11.074Z,6.60
2022-12-06T02:32:44.411Z,6.61
2022-12-06T02:35:16.452Z,6.57
2022-12-06T02:37:47.756Z,6.59
2022-12-06T02:40:18.286Z,6.57
2022-12-06T02:42:48.479Z,6.58
2022-12-06T02:45:20.372Z,6.60
2022-12-06T02:47:51.223Z,6.62
2022-12-06T02:50:21.361Z,6.62
2022-12-06T02:52:52.431Z,6.57
2022-12-06T02:55:20.437Z,6.57
2022-12-06T02:57:49.961Z,6.61
2022-12-06T03:00:36.520Z,6.62
2022-12-06T03:03:30.813Z,6.61
2022-12-06T03:06:15.544Z,6.57
2022-12-06T03:08:50.654Z,6.56
2022-12-06T03:11:18.359Z,6.57
2022-12-06T03:13:53.029Z,6.56
2022-12-06T03:16:27.346Z,6.55
2022-12-06T03:19:00.027Z,6.55
2022-12-06T03:21:30.762Z,6.57
2022-12-06T03:23:59.343Z,6.51
2022-12-06T03:26:30.534Z,6.57
2022-12-06T03:28:59.800Z,6.55
2022-12-06T03:31:29.091Z,6.59
2022-12-06T03:34:01.204Z,6.58
2022-12-06T03:36:30.192Z,6.56
2022-12-06T03:39:00.122Z,6.59
2022-12-06T03:41:30.205Z,6.52
2022-12-06T03:43:59.011Z,6.59
2022-12-06T03:46:30.775Z,6.58
2022-12-06T03:49:02.877Z,6.61
2022-12-06T03:51:32.512Z,6.63
2022-12-06T03:54:01.567Z,6.64
2022-12-06T03:56:29.451Z,6.63
2022-12-06T03:58:57.197Z,6.62
2022-12-06T04:01:24.994Z,6.59
2022-12-06T04:03:52.952Z,6.57
2022-12-06T04:06:22.106Z,6.57
2022-12-06T04:08:49.839Z,6.57
2022-12-06T04:11:17.719Z,6.55
2022-12-06T04:13:45.494Z,6.53
2022-12-06T04:16:28.281Z,6.57
2022-12-06T04:18:57.257Z,6.52
2022-12-06T04:21:43.913Z,6.52
2022-12-06T04:24:11.980Z,6.51
2022-12-06T04:26:39.694Z,6.48
2022-12-06T04:29:24.725Z,6.49
2022-12-06T04:32:09.828Z,6.47
2022-12-06T04:34:55.109Z,6.50
2022-12-06T04:37:41.522Z,6.47
2022-12-06T04:40:10.028Z,6.48
2022-12-06T04:42:55.099Z,6.48
2022-12-06T04:45:22.975Z,6.47
2022-12-06T04:47:50.715Z,6.51
2022-12-06T04:50:18.513Z,6.50
2022-12-06T04:52:47.584Z,6.51
2022-12-06T04:55:15.871Z,6.48
2022-12-06T04:57:43.530Z,6.49
2022-12-06T05:00:12.142Z,6.51
2022-12-06T05:02:39.811Z,6.54
2022-12-06T05:05:08.510Z,6.53
2022-12-06T05:07:36.198Z,6.53
2022-12-06T05:10:06.058Z,6.51
2022-12-06T05:12:33.728Z,6.50
2022-12-06T05:15:01.464Z,6.50
2022-12-06T05:17:29.146Z,6.47
2022-12-06T05:19:56.923Z,6.44
2022-12-06T05:22:24.746Z,6.42
2022-12-06T05:24:52.393Z,6.43
2022-12-06T05:27:21.449Z,6.38
2022-12-06T05:29:49.319Z,6.40
2022-12-06T05:32:16.983Z,6.43
2022-12-06T05:34:44.607Z,6.42
2022-12-06T05:37:12.354Z,6.38
2022-12-06T05:39:40.028Z,6.40
2022-12-06T05:42:07.685Z,6.40
2022-12-06T05:44:37.069Z,6.39
2022-12-06T05:47:04.846Z,6.41
2022-12-06T05:49:32.532Z,6.41
2022-12-06T05:52:03.968Z,6.41
2022-12-06T05:54:32.052Z,6.37
2022-12-06T05:56:59.747Z,6.42
2022-12-06T05:59:27.669Z,6.42
2022-12-06T06:01:56.824Z,6.39
2022-12-06T06:04:24.709Z,6.41
2022-12-06T06:06:53.230Z,6.38
2022-12-06T06:09:21.305Z,6.40
2022-12-06T06:11:48.917Z,6.42
2022-12-06T06:14:16.681Z,6.43
2022-12-06T06:16:44.391Z,6.39
2022-12-06T06:19:13.579Z,6.42
2022-12-06T06:21:41.385Z,6.42
2022-12-06T06:24:09.430Z,6.41
2022-12-06T06:26:37.024Z,6.41
2022-12-06T06:29:04.766Z,6.43
2022-12-06T06:31:32.519Z,6.40
2022-12-06T06:34:00.185Z,6.43
2022-12-06T06:36:29.393Z,6.41
2022-12-06T06:38:58.796Z,6.40
2022-12-06T06:41:26.567Z,6.40
2022-12-06T06:43:54.297Z,6.38
2022-12-06T06:46:21.985Z,6.39
2022-12-06T06:48:49.725Z,6.39
2022-12-06T06:51:17.450Z,6.36
2022-12-06T06:53:46.599Z,6.34
2022-12-06T06:56:14.301Z,6.30
2022-12-06T06:58:42.114Z,6.29
2022-12-06T07:01:11.171Z,6.28
2022-12-06T07:03:39.353Z,6.28
2022-12-06T07:06:10.255Z,6.25
2022-12-06T07:08:39.038Z,6.24
2022-12-06T07:11:08.459Z,6.23
2022-12-06T07:13:37.843Z,6.27
2022-12-06T07:16:06.140Z,6.25
2022-12-06T07:18:34.057Z,6.24
2022-12-06T07:21:03.879Z,6.25
2022-12-06T07:23:33.036Z,6.26
2022-12-06T07:26:02.357Z,6.24
2022-12-06T07:28:31.537Z,6.21
2022-12-06T07:30:59.301Z,6.21
2022-12-06T07:33:26.975Z,6.21
2022-12-06T07:36:12.417Z,6.20
2022-12-06T07:38:41.528Z,6.18
2022-12-06T07:41:25.453Z,6.19
2022-12-06T07:44:13.482Z,6.19
2022-12-06T07:46:41.431Z,6.18
2022-12-06T07:49:09.757Z,6.18
2022-12-06T07:51:37.582Z,6.18
2022-12-06T07:54:06.268Z,6.13
2022-12-06T07:56:33.922Z,6.15
2022-12-06T07:59:03.077Z,6.12
2022-12-06T08:01:30.798Z,6.17
2022-12-06T08:04:00.256Z,6.17
2022-12-06T08:06:28.063Z,6.19
2022-12-06T08:08:55.714Z,6.21
2022-12-06T08:11:24.446Z,6.21
2022-12-06T08:13:52.168Z,6.19
2022-12-06T08:16:21.323Z,6.17
2022-12-06T08:18:49.132Z,6.20
2022-12-06T08:21:17.576Z,6.18
2022-12-06T08:23:45.343Z,6.19
2022-12-06T08:26:16.344Z,6.18
2022-12-06T08:28:44.077Z,6.15
2022-12-06T08:31:14.556Z,6.15
2022-12-06T08:33:43.700Z,6.17
2022-12-06T08:36:14.034Z,6.15
2022-12-06T08:38:42.130Z,6.14
2022-12-06T08:41:31.268Z,6.16
2022-12-06T08:44:00.220Z,6.15
2022-12-06T08:46:28.548Z,6.17
2022-12-06T08:48:57.788Z,6.17
2022-12-06T08:51:25.881Z,6.20
2022-12-06T08:53:55.252Z,6.21
2022-12-06T08:56:23.013Z,6.20
2022-12-06T08:58:51.364Z,6.25
2022-12-06T09:01:21.966Z,6.23
2022-12-06T09:03:49.831Z,6.24
2022-12-06T09:06:19.397Z,6.25
2022-12-06T09:08:47.671Z,6.26
2022-12-06T09:11:16.693Z,6.29
2022-12-06T09:13:44.817Z,6.34
2022-12-06T09:16:14.250Z,6.37
2022-12-06T09:18:42.036Z,6.39
2022-12-06T09:21:11.293Z,6.42
2022-12-06T09:23:40.594Z,6.45
2022-12-06T09:26:08.955Z,6.48
2022-12-06T09:28:38.165Z,6.53
2022-12-06T09:31:07.594Z,6.57
2022-12-06T09:33:35.797Z,6.60
2022-12-06T09:36:07.631Z,6.60
2022-12-06T09:38:37.193Z,6.63
2022-12-06T09:41:11.718Z,6.66
2022-12-06T09:43:49.692Z,6.65
2022-12-06T09:46:37.288Z,6.68
2022-12-06T09:49:30.689Z,6.70
2022-12-06T09:52:12.325Z,6.72
2022-12-06T09:54:52.618Z,6.76
2022-12-06T09:57:28.133Z,6.80
2022-12-06T10:00:04.445Z,6.84
2022-12-06T10:03:07.157Z,6.85
2022-12-06T10:05:48.101Z,6.87
2022-12-06T10:08:28.018Z,6.88
2022-12-06T10:11:02.728Z,6.91
2022-12-06T10:13:46.390Z,6.94
2022-12-06T10:16:21.492Z,6.97
2022-12-06T10:19:07.714Z,7.02
2022-12-06T10:21:42.943Z,7.06
2022-12-06T10:24:19.811Z,7.09
2022-12-06T10:26:50.857Z,7.09
2022-12-06T10:29:29.204Z,7.15
2022-12-06T10:31:59.362Z,7.17
2022-12-06T10:34:48.830Z,7.18
2022-12-06T10:37:24.011Z,7.20
2022-12-06T10:39:54.375Z,7.19
2022-12-06T10:42:30.924Z,7.20
2022-12-06T10:45:02.487Z,7.21
2022-12-06T10:47:33.221Z,7.24
2022-12-06T10:50:05.098Z,7.28
2022-12-06T10:52:39.861Z,7.28
2022-12-06T10:55:18.304Z,7.31
2022-12-06T10:57:50.906Z,7.29
2022-12-06T11:00:22.086Z,7.29
2022-12-06T11:02:56.319Z,7.28
2022-12-06T11:05:27.686Z,7.34
2022-12-06T11:08:00.299Z,7.38
2022-12-06T11:10:30.668Z,7.42
2022-12-06T11:13:02.017Z,7.45
2022-12-06T11:15:34.659Z,7.50
2022-12-06T11:18:05.707Z,7.57
2022-12-06T11:20:39.794Z,7.58
2022-12-06T11:23:12.692Z,7.65
2022-12-06T11:25:47.432Z,7.72
2022-12-06T11:28:22.675Z,7.75
2022-12-06T11:30:54.603Z,7.75
2022-12-06T11:33:28.196Z,7.72
2022-12-06T11:35:57.090Z,7.66
2022-12-06T11:38:25.050Z,7.60
2022-12-06T11:40:52.908Z,7.56
2022-12-06T11:43:25.432Z,7.53
2022-12-06T11:45:56.078Z,7.54
2022-12-06T11:48:25.632Z,7.61
2022-12-06T11:50:54.197Z,7.67
2022-12-06T11:53:25.329Z,7.68
2022-12-06T11:55:54.799Z,7.73
2022-12-06T11:58:28.083Z,7.71
2022-12-06T12:01:06.188Z,7.72
2022-12-06T12:03:35.630Z,7.70
2022-12-06T12:06:20.585Z,7.64
2022-12-06T12:08:53.612Z,7.61
2022-12-06T12:11:22.665Z,7.59
2022-12-06T12:13:52.653Z,7.56
2022-12-06T12:16:24.592Z,7.55
2022-12-06T12:18:56.169Z,7.54
2022-12-06T12:21:36.640Z,7.50
2022-12-06T12:24:05.393Z,7.51
2022-12-06T12:26:39.586Z,7.53
2022-12-06T12:29:17.079Z,7.58
2022-12-06T12:31:54.452Z,7.63
2022-12-06T12:34:23.495Z,7.64
2022-12-06T12:36:52.719Z,7.55
2022-12-06T12:39:29.667Z,7.57
2022-12-06T12:41:57.324Z,7.55
2022-12-06T12:44:42.462Z,7.53
2022-12-06T12:47:17.974Z,7.52
2022-12-06T12:50:00.762Z,7.47
2022-12-06T12:52:30.514Z,7.44
2022-12-06T12:55:03.107Z,7.46
2022-12-06T12:57:31.092Z,7.49
2022-12-06T12:59:59.102Z,7.48
2022-12-06T13:02:30.222Z,7.50
2022-12-06T13:07:50.787Z,7.58
2022-12-06T13:10:20.661Z,7.56
2022-12-06T13:12:51.988Z,7.58
2022-12-06T13:15:22.393Z,7.61
2022-12-06T13:17:59.286Z,7.63
2022-12-06T13:20:29.307Z,7.62
2022-12-06T13:23:00.199Z,7.60
2022-12-06T13:25:28.286Z,7.60
2022-12-06T13:28:03.685Z,7.65
2022-12-06T13:30:35.090Z,7.67
2022-12-06T13:33:07.009Z,7.67
2022-12-06T13:35:38.128Z,7.66
2022-12-06T13:38:26.713Z,7.68
2022-12-06T13:40:55.371Z,7.67
2022-12-06T13:43:59.160Z,7.70
2022-12-06T13:46:30.089Z,7.70
2022-12-06T13:49:03.424Z,7.69
2022-12-06T13:51:45.623Z,7.67
2022-12-06T13:54:37.077Z,7.68
2022-12-06T13:57:22.845Z,7.70
2022-12-06T13:59:50.765Z,7.71
2022-12-06T14:02:49.177Z,7.70
2022-12-06T14:08:38.158Z,7.66
2022-12-06T14:11:22.298Z,7.68
2022-12-06T14:14:01.330Z,7.67
2022-12-06T14:16:32.543Z,7.62
2022-12-06T14:19:00.372Z,7.63
2022-12-06T14:21:31.676Z,7.60
2022-12-06T14:24:00.815Z,7.62
2022-12-06T14:26:30.591Z,7.65
2022-12-06T14:29:00.072Z,7.67
2022-12-06T14:31:30.424Z,7.66
2022-12-06T14:33:58.706Z,7.65
2022-12-06T14:36:29.857Z,7.63
2022-12-06T14:39:02.061Z,7.61
2022-12-06T14:41:49.624Z,7.59
2022-12-06T14:44:19.243Z,7.58
2022-12-06T14:46:48.343Z,7.61
2022-12-06T14:49:37.912Z,7.59
2022-12-06T14:52:18.643Z,7.56
2022-12-06T14:54:48.348Z,7.53
2022-12-06T14:57:26.588Z,7.49
2022-12-06T15:03:00.834Z,7.55
2022-12-06T15:05:37.553Z,7.53
2022-12-06T15:08:32.756Z,7.52
2022-12-06T15:11:03.653Z,7.51
2022-12-06T15:13:30.481Z,7.49
2022-12-06T15:16:04.674Z,7.52
2022-12-06T15:18:34.360Z,7.51
2022-12-06T15:21:02.105Z,7.49
2022-12-06T15:23:35.898Z,7.47
2022-12-06T15:26:05.791Z,7.45
2022-12-06T15:28:35.557Z,7.44
2022-12-06T15:31:03.839Z,7.43
2022-12-06T15:33:31.810Z,7.43
2022-12-06T15:35:59.656Z,7.42
2022-12-06T15:38:27.412Z,7.41
2022-12-06T15:40:56.093Z,7.39
2022-12-06T15:43:30.275Z,7.39
2022-12-06T15:46:00.379Z,7.39
2022-12-06T15:48:28.577Z,7.36
2022-12-06T15:50:57.055Z,7.37
2022-12-06T15:53:25.916Z,7.38
2022-12-06T15:55:53.802Z,7.38
2022-12-06T15:58:22.841Z,7.39
2022-12-06T16:00:51.975Z,7.35
2022-12-06T16:03:19.742Z,7.40
2022-12-06T16:05:47.436Z,7.41
2022-12-06T16:08:15.167Z,7.40
2022-12-06T16:11:10.792Z,7.40
2022-12-06T16:13:31.455Z,7.41
2022-12-06T16:16:00.686Z,7.42
2022-12-06T16:18:28.552Z,7.42
2022-12-06T16:20:56.640Z,7.41
2022-12-06T16:24:11.853Z,7.38
2022-12-06T16:26:32.990Z,7.37
2022-12-06T16:29:01.833Z,7.36
2022-12-06T16:31:35.145Z,7.37
2022-12-06T16:34:06.130Z,7.38
2022-12-06T16:36:34.224Z,7.37
2022-12-06T16:39:04.472Z,7.37
2022-12-06T16:41:34.433Z,7.38
2022-12-06T16:44:02.535Z,7.37
2022-12-06T16:46:33.133Z,7.37
2022-12-06T16:49:36.651Z,7.38
2022-12-06T16:51:50.197Z,7.39
2022-12-06T16:54:40.936Z,7.37
2022-12-06T16:57:09.961Z,7.36
2022-12-06T16:59:37.801Z,7.38
2022-12-06T17:02:10.086Z,7.38
2022-12-06T17:04:42.709Z,7.34
2022-12-06T17:07:10.356Z,7.33
2022-12-06T17:09:39.360Z,7.34
2022-12-06T17:12:12.636Z,7.36
2022-12-06T17:14:40.712Z,7.36
2022-12-06T17:17:09.823Z,7.37
2022-12-06T17:19:37.664Z,7.35
2022-12-06T17:22:07.293Z,7.35
2022-12-06T17:24:35.008Z,7.34
2022-12-06T17:27:04.105Z,7.33
2022-12-06T17:29:31.791Z,7.29
2022-12-06T17:31:59.984Z,7.31
2022-12-06T17:34:27.720Z,7.29
2022-12-06T17:36:57.406Z,7.26
2022-12-06T17:39:25.090Z,7.28
2022-12-06T17:42:10.622Z,7.29
2022-12-06T17:44:40.015Z,7.26
2022-12-06T17:47:07.963Z,7.27
2022-12-06T17:49:36.199Z,7.25
2022-12-06T17:52:03.904Z,7.25
2022-12-06T17:54:31.769Z,7.23
2022-12-06T17:56:59.547Z,7.26
2022-12-06T17:59:29.418Z,7.23
2022-12-06T18:02:16.885Z,7.18
2022-12-06T18:04:46.141Z,7.17
2022-12-06T18:07:14.614Z,7.12
2022-12-06T18:09:42.399Z,7.10
2022-12-06T18:12:10.935Z,7.08
2022-12-06T18:14:38.729Z,7.08
2022-12-06T18:17:07.992Z,7.08
2022-12-06T18:19:36.198Z,7.08
2022-12-06T18:22:04.494Z,7.06
2022-12-06T18:24:35.886Z,7.06
2022-12-06T18:27:04.667Z,7.05
2022-12-06T18:29:32.651Z,7.05
2022-12-06T18:32:00.475Z,7.03
2022-12-06T18:34:29.716Z,7.03
2022-12-06T18:36:57.487Z,7.01
2022-12-06T18:39:25.404Z,7.01
2022-12-06T18:41:54.042Z,6.96
2022-12-06T18:44:22.392Z,6.89
2022-12-06T18:46:50.095Z,6.86
2022-12-06T18:49:17.947Z,6.89
2022-12-06T18:51:47.061Z,6.90
2022-12-06T18:54:14.964Z,6.93
2022-12-06T18:56:42.928Z,6.93
2022-12-06T18:59:12.242Z,6.97
2022-12-06T19:01:41.465Z,6.99
2022-12-06T19:04:11.465Z,6.99
2022-12-06T19:06:39.493Z,6.99
2022-12-06T19:09:13.367Z,7.00
2022-12-06T19:11:42.258Z,7.01
2022-12-06T19:14:10.191Z,7.00
2022-12-06T19:16:40.257Z,6.99
2022-12-06T19:19:15.878Z,6.99
2022-12-06T19:21:45.157Z,6.97
2022-12-06T19:24:16.558Z,6.92
2022-12-06T19:26:45.709Z,6.97
2022-12-06T19:29:14.064Z,6.96
2022-12-06T19:31:41.769Z,6.96
2022-12-06T19:34:15.165Z,6.97
2022-12-06T19:36:43.139Z,6.95
2022-12-06T19:39:11.518Z,6.97
2022-12-06T19:41:54.488Z,6.97
2022-12-06T19:44:22.767Z,6.99
2022-12-06T19:46:50.493Z,6.99
2022-12-06T19:49:19.915Z,7.03
2022-12-06T19:51:49.255Z,7.04
2022-12-06T19:54:19.403Z,7.07
2022-12-06T19:56:48.951Z,7.08
2022-12-06T19:59:16.759Z,7.08
2022-12-06T20:01:45.609Z,7.08
2022-12-06T20:04:15.869Z,7.10
2022-12-06T20:06:43.975Z,7.08
2022-12-06T20:09:11.667Z,7.07
2022-12-06T20:11:58.174Z,7.08
2022-12-06T20:14:27.867Z,7.03
2022-12-06T20:16:55.704Z,7.01
2022-12-06T20:19:24.226Z,7.00
2022-12-06T20:21:52.019Z,7.02
2022-12-06T20:24:22.512Z,7.05
2022-12-06T20:26:51.790Z,7.06
2022-12-06T20:29:19.738Z,7.05
2022-12-06T20:31:49.922Z,7.02
2022-12-06T20:34:18.012Z,7.05
2022-12-06T20:36:45.822Z,7.05
2022-12-06T20:39:20.871Z,7.05
2022-12-06T20:41:49.518Z,7.02
2022-12-06T20:44:17.626Z,7.02
2022-12-06T20:46:45.657Z,7.03
2022-12-06T20:49:16.163Z,7.06
2022-12-06T20:51:48.219Z,7.06
2022-12-06T20:54:20.313Z,7.10
2022-12-06T20:56:51.481Z,7.10
2022-12-06T20:59:19.565Z,7.08
2022-12-06T21:01:47.529Z,7.10
2022-12-06T21:04:16.959Z,7.10
2022-12-06T21:06:44.632Z,7.09
2022-12-06T21:09:12.496Z,7.11
2022-12-06T21:11:40.323Z,7.12
2022-12-06T21:14:08.107Z,7.15
2022-12-06T21:16:38.253Z,7.13
2022-12-06T21:19:07.154Z,7.14
2022-12-06T21:21:37.924Z,7.15
2022-12-06T21:24:07.752Z,7.12
2022-12-06T21:26:35.891Z,7.11
2022-12-06T21:29:03.853Z,7.11
2022-12-06T21:31:33.437Z,7.10
2022-12-06T21:34:01.484Z,7.09
2022-12-06T21:36:29.440Z,7.09
2022-12-06T21:38:58.968Z,7.10
2022-12-06T21:41:27.050Z,7.06
2022-12-06T21:43:54.858Z,7.08
2022-12-06T21:46:24.332Z,7.08
2022-12-06T21:48:52.781Z,7.07
2022-12-06T21:51:20.874Z,7.06
2022-12-06T21:53:48.972Z,7.05
2022-12-06T21:56:20.381Z,7.05
2022-12-06T21:58:48.457Z,7.05
2022-12-06T22:01:18.674Z,7.03
2022-12-06T22:03:48.627Z,7.04
2022-12-06T22:06:16.524Z,7.05
2022-12-06T22:08:45.450Z,7.04
2022-12-06T22:11:14.768Z,7.04
2022-12-06T22:13:44.293Z,7.01
2022-12-06T22:16:13.090Z,7.02
2022-12-06T22:18:45.596Z,7.00
2022-12-06T22:21:16.110Z,6.96
2022-12-06T22:23:44.411Z,6.96
2022-12-06T22:26:14.920Z,6.94
2022-12-06T22:28:44.322Z,6.91
2022-12-06T22:31:13.378Z,6.90
2022-12-06T22:33:41.146Z,6.86
2022-12-06T22:36:10.100Z,6.82
2022-12-06T22:38:38.226Z,6.82
2022-12-06T22:41:07.180Z,6.79
2022-12-06T22:43:35.208Z,6.78
2022-12-06T22:46:12.455Z,6.76
2022-12-06T22:48:41.279Z,6.76
2022-12-06T22:51:11.184Z,6.75
2022-12-06T22:53:38.912Z,6.72
2022-12-06T22:56:07.083Z,6.72
2022-12-06T22:58:34.936Z,6.69
2022-12-06T23:01:16.024Z,6.68
2022-12-06T23:03:45.144Z,6.69
2022-12-06T23:06:13.341Z,6.70
2022-12-06T23:08:41.145Z,6.69
2022-12-06T23:11:10.778Z,6.68
2022-12-06T23:13:38.727Z,6.66
2022-12-06T23:16:10.342Z,6.68
2022-12-06T23:18:38.183Z,6.68
2022-12-06T23:21:07.165Z,6.67
2022-12-06T23:23:35.221Z,6.66
2022-12-06T23:26:03.805Z,6.66
2022-12-06T23:28:31.618Z,6.64
2022-12-06T23:31:03.434Z,6.64
2022-12-06T23:33:32.890Z,6.60
2022-12-06T23:36:06.152Z,6.60
2022-12-06T23:38:33.887Z,6.59
2022-12-06T23:43:25.047Z,6.58
2022-12-06T23:45:59.136Z,6.52
2022-12-06T23:48:27.984Z,6.52
2022-12-06T23:51:02.538Z,6.51
2022-12-06T23:53:30.475Z,6.48
2022-12-06T23:56:00.025Z,6.47
2022-12-06T23:58:30.124Z,6.46
